Baldim, Brazil
Current Conditions -  °F | °C
As of 5:00 PM on Monday 20 Oct 2014 (Local Time) from SBLS Reporting Station
Few Clouds Few Clouds  
Wind Chill: 88°   Ceiling: Unl
Heat Index: 88°   Visibility: 6mi
Dew Point: 55°   Wind: 10mph
Humidity: 33%   Direction: 190°S
Pressure: 29.91"   Gusts: NA
Location:  19.29°S, 43.96°W
Report Text: SBLS 202000Z 19009KT 9999 FEW040 31/13 Q1013
Loading
Personal Weather Stations






























Interactive Weather Map
Tropical Storm Tracking
New forecast layout! Learn more

10-Day Weather Forecast

Advertisements
Track Severe Weather on mobile